SBGO/GYN METAR and TAF weather

Enter ICAO airport designator
Station Type Date Time Source
SBGO METAR 2021/04/13 07:00 UTC NOAA

SBGO 130700Z 12005KT CAVOK 21/19 Q1017


Station Type Date Time Source
SBGO Decoded METAR 2021/04/13 07:00 UTC NOAA

Goiania Aeroporto , Brazil (SBGO) 16-38S 049-13W
Apr 13, 2021 - 03:00 AM EDT / 2021.04.13 0700 UTC
Wind: from the ESE (120 degrees) at 6 MPH (5 KT):0
Visibility: greater than 7 mile(s):0
Temperature: 69 F (21 C)
Dew Point: 66 F (19 C)
Relative Humidity: 88%
Pressure (altimeter): 30.03 in. Hg (1017 hPa)
ob: SBGO 130700Z 12005KT CAVOK 21/19 Q1017
cycle: 7

Station Type Date Time Source
SBGO TAF 2021/04/13 06:18 UTC NOAA

TAF TAF SBGO 130200Z 1306/1406 13005KT CAVOK TN18/1309Z TX31/1318Z
TEMPO 1306/1308 00000KT
BECMG 1314/1316 27005KT SCT040
TEMPO 1318/1321 TS BKN030 FEW040CB
BECMG 1400/1402 13005KT CAVOK
RMK PGD

Example: see airport list